createdAt,value
2022-10-16T00:01:29.254Z,101138.53
2022-10-16T00:03:58.345Z,101136.44
2022-10-16T00:06:29.696Z,101151.09
2022-10-16T00:08:58.482Z,101151.28
2022-10-16T00:11:28.955Z,101152.13
2022-10-16T00:14:00.167Z,101147.19
2022-10-16T00:16:29.036Z,101148.03
2022-10-16T00:18:57.665Z,101146.84
2022-10-16T00:21:29.747Z,101148.69
2022-10-16T00:24:00.234Z,101149.53
2022-10-16T00:26:30.053Z,101146.00
2022-10-16T00:28:59.608Z,101143.97
2022-10-16T00:31:28.286Z,101154.78
2022-10-16T00:33:56.520Z,101147.69
2022-10-16T00:36:27.024Z,101153.94
2022-10-16T00:41:34.441Z,101161.56
2022-10-16T00:44:04.551Z,101149.91
2022-10-16T00:46:37.758Z,101163.22
2022-10-16T00:49:08.452Z,101160.34
2022-10-16T00:51:38.796Z,101165.75
2022-10-16T00:54:13.480Z,101154.78
2022-10-16T00:56:42.838Z,101160.19
2022-10-16T00:59:17.338Z,101160.00
2022-10-16T01:01:45.715Z,101157.13
2022-10-16T01:04:14.313Z,101158.81
2022-10-16T01:06:48.715Z,101157.59
2022-10-16T01:09:24.632Z,101157.78
2022-10-16T01:12:04.287Z,101165.72
2022-10-16T01:14:42.754Z,101166.34
2022-10-16T01:17:15.042Z,101166.34
2022-10-16T01:20:02.556Z,101173.06
2022-10-16T01:22:39.643Z,101172.06
2022-10-16T01:25:15.065Z,101163.94
2022-10-16T01:27:48.714Z,101040.50
2022-10-16T01:30:21.105Z,101170.88
2022-10-16T01:32:55.072Z,101167.81
2022-10-16T01:35:27.624Z,101169.66
2022-10-16T01:38:01.610Z,101168.47
2022-10-16T01:40:30.934Z,101161.88
2022-10-16T01:43:05.476Z,101161.69
2022-10-16T01:45:35.124Z,101158.13
2022-10-16T01:48:08.393Z,101157.13
2022-10-16T01:50:41.981Z,101154.22
2022-10-16T01:53:14.270Z,101149.84
2022-10-16T01:55:48.246Z,101155.25
2022-10-16T01:58:18.320Z,101158.97
2022-10-16T02:00:48.924Z,101152.72
2022-10-16T02:03:20.628Z,101151.91
2022-10-16T02:05:52.800Z,101149.19
2022-10-16T02:08:21.342Z,101150.69
2022-10-16T02:10:49.609Z,101142.41
2022-10-16T02:13:26.153Z,101112.59
2022-10-16T02:15:54.530Z,101136.81
2022-10-16T02:18:23.686Z,101138.31
2022-10-16T02:20:57.749Z,101137.16
2022-10-16T02:23:37.230Z,101142.34
2022-10-16T02:26:09.236Z,101147.56
2022-10-16T02:28:44.203Z,101113.56
2022-10-16T02:31:16.110Z,101145.16
2022-10-16T02:33:46.449Z,101147.88
2022-10-16T02:36:15.093Z,101143.50
2022-10-16T02:38:43.977Z,101138.91
2022-10-16T02:41:12.561Z,101144.34
2022-10-16T02:43:42.294Z,101146.84
2022-10-16T02:46:10.730Z,101141.81
2022-10-16T02:48:40.317Z,101146.66
2022-10-16T02:51:08.801Z,101141.44
2022-10-16T02:53:37.066Z,101140.25
2022-10-16T02:56:05.496Z,101136.69
2022-10-16T02:58:33.705Z,101143.97
2022-10-16T03:01:03.812Z,101147.50
2022-10-16T03:03:32.089Z,101139.22
2022-10-16T03:06:00.467Z,101141.91
2022-10-16T03:08:28.760Z,101143.44
2022-10-16T03:10:57.163Z,101146.78
2022-10-16T03:13:25.422Z,101144.94
2022-10-16T03:15:53.786Z,101149.13
2022-10-16T03:18:23.466Z,101149.78
2022-10-16T03:20:51.733Z,101148.13
2022-10-16T03:23:20.025Z,101151.28
2022-10-16T03:25:48.549Z,101156.88
2022-10-16T03:28:16.813Z,101159.59
2022-10-16T03:30:45.841Z,101162.97
2022-10-16T03:33:14.129Z,101174.78
2022-10-16T03:35:43.804Z,101170.88
2022-10-16T03:38:12.119Z,101175.47
2022-10-16T03:40:40.419Z,101180.47
2022-10-16T03:43:08.744Z,101175.91
2022-10-16T03:45:37.148Z,101181.50
2022-10-16T03:48:05.717Z,101178.59
2022-10-16T03:50:33.995Z,101173.38
2022-10-16T03:53:03.707Z,101171.34
2022-10-16T03:55:32.081Z,101175.06
2022-10-16T03:58:00.331Z,101177.59
2022-10-16T04:00:28.899Z,101184.50
2022-10-16T04:02:57.264Z,101188.88
2022-10-16T04:05:25.574Z,101189.53
2022-10-16T04:07:53.789Z,101187.69
2022-10-16T04:10:23.455Z,101182.09
2022-10-16T04:12:51.711Z,101190.22
2022-10-16T04:15:20.065Z,101191.88
2022-10-16T04:17:48.334Z,101196.47
2022-10-16T04:20:16.753Z,101198.50
2022-10-16T04:22:45.808Z,101169.38
2022-10-16T04:25:14.182Z,101193.94
2022-10-16T04:27:46.071Z,101192.91
2022-10-16T04:30:14.894Z,101197.66
2022-10-16T04:32:43.465Z,101196.63
2022-10-16T04:35:11.760Z,101194.13
2022-10-16T04:37:40.019Z,101200.38
2022-10-16T04:40:09.311Z,101198.31
2022-10-16T04:42:37.459Z,101206.44
2022-10-16T04:45:11.982Z,101201.69
2022-10-16T04:47:43.170Z,101203.72
2022-10-16T04:50:11.886Z,101209.97
2022-10-16T04:52:40.205Z,101209.81
2022-10-16T04:55:09.274Z,101208.59
2022-10-16T04:57:37.515Z,101211.97
2022-10-16T05:00:09.147Z,101217.38
2022-10-16T05:02:37.596Z,101213.81
2022-10-16T05:05:06.690Z,101216.34
2022-10-16T05:07:34.988Z,101234.44
2022-10-16T05:10:03.262Z,101233.44
2022-10-16T05:12:31.545Z,101233.06
2022-10-16T05:15:00.620Z,101235.41
2022-10-16T05:17:30.259Z,101243.34
2022-10-16T05:19:58.569Z,101237.09
2022-10-16T05:22:26.974Z,101245.84
2022-10-16T05:24:55.266Z,101223.16
2022-10-16T05:27:24.994Z,101247.53
2022-10-16T05:29:53.652Z,101243.34
2022-10-16T05:32:22.066Z,101246.22
2022-10-16T05:34:53.488Z,101251.66
2022-10-16T05:37:21.975Z,101259.09
2022-10-16T05:39:50.292Z,101259.09
2022-10-16T05:42:18.938Z,101271.78
2022-10-16T05:44:48.357Z,101266.56
2022-10-16T05:47:16.819Z,101277.38
2022-10-16T05:49:45.014Z,101270.28
2022-10-16T05:52:15.210Z,101281.94
2022-10-16T05:54:45.023Z,101286.53
2022-10-16T05:57:13.561Z,101290.59
2022-10-16T05:59:41.924Z,101298.19
2022-10-16T06:02:14.153Z,101296.16
2022-10-16T06:04:43.679Z,101300.34
2022-10-16T06:07:14.230Z,101306.13
2022-10-16T06:09:43.546Z,101304.25
2022-10-16T06:12:12.066Z,101300.72
2022-10-16T06:14:40.850Z,101303.41
2022-10-16T06:17:09.263Z,101317.31
2022-10-16T06:19:37.682Z,101315.44
2022-10-16T06:22:06.350Z,101311.72
2022-10-16T06:24:36.441Z,101313.03
2022-10-16T06:27:06.822Z,101309.56
2022-10-16T06:29:35.425Z,101318.47
2022-10-16T06:32:03.727Z,101314.91
2022-10-16T06:34:33.078Z,101321.44
2022-10-16T06:37:01.306Z,101328.53
2022-10-16T06:39:29.800Z,101327.69
2022-10-16T06:44:37.827Z,101334.13
2022-10-16T06:47:06.042Z,101324.97
2022-10-16T06:49:34.544Z,101330.03
2022-10-16T06:52:03.492Z,101331.38
2022-10-16T06:54:36.419Z,101323.53
2022-10-16T06:57:12.212Z,101321.13
2022-10-16T06:59:43.059Z,101304.53
2022-10-16T07:02:13.621Z,101305.75
2022-10-16T07:04:42.063Z,101304.06
2022-10-16T07:07:11.127Z,101313.03
2022-10-16T07:09:39.973Z,101320.28
2022-10-16T07:12:08.420Z,101320.78
2022-10-16T07:14:38.429Z,101320.50
2022-10-16T07:17:07.126Z,101330.81
2022-10-16T07:19:35.472Z,101337.31
2022-10-16T07:22:04.194Z,101329.75
2022-10-16T07:24:32.535Z,101349.28
2022-10-16T07:27:00.795Z,101342.00
2022-10-16T07:29:30.107Z,101340.69
2022-10-16T07:31:59.904Z,101361.56
2022-10-16T07:34:28.595Z,101356.97
2022-10-16T07:36:57.287Z,101367.88
2022-10-16T07:39:25.567Z,101362.38
2022-10-16T07:41:53.835Z,101373.25
2022-10-16T07:44:22.281Z,101376.59
2022-10-16T07:46:50.623Z,101384.69
2022-10-16T07:49:20.334Z,101390.63
2022-10-16T07:51:48.571Z,101391.44
2022-10-16T07:54:16.955Z,101391.81
2022-10-16T07:56:45.349Z,101407.78
2022-10-16T07:59:13.884Z,101411.28
2022-10-16T08:01:43.190Z,101421.63
2022-10-16T08:04:11.840Z,101423.69
2022-10-16T08:06:43.117Z,101425.94
2022-10-16T08:09:11.398Z,101439.41
2022-10-16T08:11:39.662Z,101444.19
2022-10-16T08:14:08.103Z,101450.38
2022-10-16T08:16:36.389Z,101453.84
2022-10-16T08:19:04.840Z,101460.50
2022-10-16T08:21:33.041Z,101465.09
2022-10-16T08:24:02.659Z,101476.78
2022-10-16T08:26:30.993Z,101478.84
2022-10-16T08:28:59.339Z,101471.25
2022-10-16T08:31:28.442Z,101478.56
2022-10-16T08:33:56.874Z,101477.06
2022-10-16T08:36:25.168Z,101477.59
2022-10-16T08:38:55.438Z,101492.84
2022-10-16T08:41:55.098Z,101495.84
2022-10-16T08:44:42.884Z,101502.13
2022-10-16T08:47:19.596Z,101499.50
2022-10-16T08:49:58.565Z,101508.13
2022-10-16T08:52:31.263Z,101505.41
2022-10-16T08:54:59.726Z,101510.38
2022-10-16T08:57:29.462Z,101502.03
2022-10-16T09:00:02.934Z,101513.53
2022-10-16T09:02:37.175Z,101516.25
2022-10-16T09:05:23.955Z,101522.34
2022-10-16T09:08:07.801Z,101524.00
2022-10-16T09:10:46.825Z,101522.34
2022-10-16T09:13:25.727Z,101529.44
2022-10-16T09:16:03.967Z,101530.28
2022-10-16T09:18:37.477Z,101540.69
2022-10-16T09:21:14.089Z,101533.56
2022-10-16T09:23:42.450Z,101531.88
2022-10-16T09:26:14.782Z,101530.19
2022-10-16T09:28:44.831Z,101527.47
2022-10-16T09:31:19.696Z,101533.75
2022-10-16T09:33:54.663Z,101524.78
2022-10-16T09:36:24.212Z,101527.38
2022-10-16T09:38:54.982Z,101527.56
2022-10-16T09:41:26.361Z,101532.81
2022-10-16T09:43:58.491Z,101532.63
2022-10-16T09:46:32.527Z,101523.75
2022-10-16T09:49:02.880Z,101517.66
2022-10-16T09:51:33.183Z,101433.28
2022-10-16T09:54:03.655Z,101522.44
2022-10-16T09:56:34.554Z,101525.09
2022-10-16T09:59:13.592Z,101527.38
2022-10-16T10:01:43.881Z,101484.28
2022-10-16T10:04:12.622Z,101524.75
2022-10-16T10:06:46.615Z,101530.81
2022-10-16T10:09:23.548Z,101532.91
2022-10-16T10:11:56.910Z,101472.91
2022-10-16T10:14:30.884Z,101531.47
2022-10-16T10:17:21.067Z,101535.84
2022-10-16T10:19:53.348Z,101539.88
2022-10-16T10:22:29.928Z,101506.97
2022-10-16T10:25:02.677Z,101536.22
2022-10-16T10:27:39.214Z,101511.59
2022-10-16T10:33:06.013Z,101521.72
2022-10-16T10:35:46.333Z,101510.09
2022-10-16T10:38:33.367Z,101521.25
2022-10-16T10:41:17.401Z,101515.63
2022-10-16T10:43:58.754Z,101520.09
2022-10-16T10:46:36.676Z,101513.63
2022-10-16T10:49:24.069Z,101515.69
2022-10-16T10:52:10.174Z,101513.34
2022-10-16T10:54:47.893Z,101517.38
2022-10-16T10:57:23.964Z,101510.09
2022-10-16T11:00:18.460Z,101514.09
2022-10-16T11:02:55.233Z,101506.53
2022-10-16T11:05:48.585Z,101506.53
2022-10-16T11:08:22.951Z,101499.84
2022-10-16T11:10:55.916Z,101501.44
2022-10-16T11:13:36.519Z,101497.63
2022-10-16T11:16:14.262Z,101483.47
2022-10-16T11:18:52.317Z,101493.88
2022-10-16T11:21:26.137Z,101499.94
2022-10-16T11:24:02.662Z,101499.56
2022-10-16T11:26:36.041Z,101494.78
2022-10-16T11:29:07.431Z,101501.91
2022-10-16T11:31:40.309Z,101494.22
2022-10-16T11:34:26.906Z,101459.97
2022-10-16T11:37:02.412Z,101481.94
2022-10-16T11:39:32.347Z,101483.34
2022-10-16T11:42:07.910Z,101484.19
2022-10-16T11:44:48.803Z,101486.59
2022-10-16T11:47:57.393Z,101489.88
2022-10-16T11:50:32.514Z,101494.03
2022-10-16T11:53:07.030Z,101488.22
2022-10-16T11:55:41.824Z,101487.16
2022-10-16T11:58:24.009Z,101491.56
2022-10-16T12:00:59.955Z,101494.94
2022-10-16T12:03:33.925Z,101497.69
2022-10-16T12:06:26.605Z,101501.72
2022-10-16T12:08:57.633Z,101495.63
2022-10-16T12:11:34.969Z,101467.69
2022-10-16T12:14:21.347Z,101470.19
2022-10-16T12:16:59.385Z,101494.84
2022-10-16T12:19:29.881Z,101501.75
2022-10-16T12:22:01.957Z,101490.44
2022-10-16T12:24:37.329Z,101486.47
2022-10-16T12:27:08.694Z,101467.72
2022-10-16T12:29:39.974Z,101483.13
2022-10-16T12:35:22.187Z,101481.56
2022-10-16T12:37:53.410Z,101477.84
2022-10-16T12:40:32.111Z,101488.13
2022-10-16T12:43:01.010Z,101482.44
2022-10-16T12:45:32.301Z,101486.22
2022-10-16T12:48:02.395Z,101455.38
2022-10-16T12:50:36.842Z,101479.13
2022-10-16T12:53:21.132Z,101476.59
2022-10-16T12:55:58.713Z,101484.31
2022-10-16T12:58:45.161Z,101471.16
2022-10-16T13:01:26.035Z,101482.22
2022-10-16T13:04:15.724Z,101480.56
2022-10-16T13:06:53.835Z,101482.03
2022-10-16T13:09:45.942Z,101484.34
2022-10-16T13:12:35.547Z,101473.91
2022-10-16T13:15:29.555Z,101477.88
2022-10-16T13:18:06.023Z,101473.03
2022-10-16T13:20:38.553Z,101424.94
2022-10-16T13:23:17.553Z,101472.44
2022-10-16T13:26:07.270Z,101467.63
2022-10-16T13:28:38.039Z,101476.00
2022-10-16T13:31:07.320Z,101470.34
2022-10-16T13:33:38.896Z,101470.16
2022-10-16T13:36:07.766Z,101468.31
2022-10-16T13:38:37.520Z,101470.19
2022-10-16T13:41:15.815Z,101370.69
2022-10-16T13:43:47.165Z,101476.06
2022-10-16T13:46:17.188Z,101477.53
2022-10-16T13:48:46.541Z,101476.69
2022-10-16T13:51:16.842Z,101475.00
2022-10-16T13:53:46.044Z,101479.00
2022-10-16T13:56:17.941Z,101472.94
2022-10-16T13:58:46.776Z,101462.03
2022-10-16T14:01:20.523Z,101473.59
2022-10-16T14:03:49.818Z,101467.69
2022-10-16T14:06:23.029Z,101334.19
2022-10-16T14:08:55.918Z,101449.63
2022-10-16T14:11:27.146Z,101474.81
2022-10-16T14:13:56.442Z,101480.06
2022-10-16T14:16:27.587Z,101471.25
2022-10-16T14:19:00.006Z,101476.69
2022-10-16T14:21:28.933Z,101477.31
2022-10-16T14:23:57.254Z,101478.56
2022-10-16T14:26:29.330Z,101474.16
2022-10-16T14:29:12.716Z,101481.69
2022-10-16T14:31:41.824Z,101484.84
2022-10-16T14:34:28.399Z,101487.13
2022-10-16T14:36:57.959Z,101487.31
2022-10-16T14:39:28.678Z,101483.56
2022-10-16T14:42:00.476Z,101488.38
2022-10-16T14:44:35.413Z,101494.41
2022-10-16T14:47:15.321Z,101492.50
2022-10-16T14:49:44.144Z,101498.16
2022-10-16T14:52:15.375Z,101488.72
2022-10-16T14:54:44.015Z,101466.91
2022-10-16T14:57:21.705Z,101489.16
2022-10-16T14:59:52.246Z,101493.13
2022-10-16T15:02:31.933Z,101490.41
2022-10-16T15:05:04.414Z,101493.78
2022-10-16T15:07:32.713Z,101496.91
2022-10-16T15:10:00.913Z,101499.22
2022-10-16T15:12:30.613Z,101494.38
2022-10-16T15:14:59.068Z,101489.31
2022-10-16T15:17:27.590Z,101498.09
2022-10-16T15:19:56.061Z,101499.13
2022-10-16T15:22:24.610Z,101508.53
2022-10-16T15:24:52.873Z,101511.63
2022-10-16T15:27:21.111Z,101498.41
2022-10-16T15:29:50.798Z,101494.28
2022-10-16T15:32:19.053Z,101497.16
2022-10-16T15:34:47.435Z,101503.84
2022-10-16T15:37:15.697Z,101513.50
2022-10-16T15:39:44.061Z,101509.31
2022-10-16T15:42:12.522Z,101507.19
2022-10-16T15:44:40.792Z,101511.34
2022-10-16T15:47:10.493Z,101515.75
2022-10-16T15:49:38.806Z,101520.56
2022-10-16T15:52:07.307Z,101514.69
2022-10-16T15:54:35.702Z,101527.63
2022-10-16T15:59:32.144Z,101536.38
2022-10-16T16:02:00.575Z,101528.63
2022-10-16T16:04:43.340Z,101532.78
2022-10-16T16:07:12.608Z,101533.81
2022-10-16T16:09:40.822Z,101535.28
2022-10-16T16:12:09.413Z,101546.16
2022-10-16T16:14:37.666Z,101546.34
2022-10-16T16:17:05.866Z,101542.53
2022-10-16T16:19:35.962Z,101547.59
2022-10-16T16:22:06.133Z,101552.75
2022-10-16T16:24:37.661Z,101546.22
2022-10-16T16:27:06.922Z,101554.00
2022-10-16T16:29:35.195Z,101548.75
2022-10-16T16:32:03.433Z,101551.66
2022-10-16T16:34:32.057Z,101555.41
2022-10-16T16:37:01.624Z,101551.59
2022-10-16T16:39:30.074Z,101555.97
2022-10-16T16:41:59.432Z,101548.63
2022-10-16T16:44:27.894Z,101553.56
2022-10-16T16:46:56.794Z,101559.06
2022-10-16T16:49:25.119Z,101567.22
2022-10-16T16:51:55.282Z,101563.22
2022-10-16T16:54:25.405Z,101576.16
2022-10-16T16:56:53.631Z,101576.53
2022-10-16T16:59:23.138Z,101579.25
2022-10-16T17:01:56.786Z,101577.94
2022-10-16T17:04:25.418Z,101578.31
2022-10-16T17:06:55.835Z,101578.69
2022-10-16T17:09:26.913Z,101594.53
2022-10-16T17:11:55.575Z,101596.00
2022-10-16T17:14:24.227Z,101595.25
2022-10-16T17:16:54.373Z,101596.03
2022-10-16T17:19:22.639Z,101599.41
2022-10-16T17:21:52.130Z,101605.66
2022-10-16T17:24:21.517Z,101607.25
2022-10-16T17:26:51.594Z,101611.84
2022-10-16T17:29:20.124Z,101611.38
2022-10-16T17:31:50.988Z,101613.72
2022-10-16T17:34:19.760Z,101635.19
2022-10-16T17:36:48.255Z,101627.59
2022-10-16T17:39:19.196Z,101632.19
2022-10-16T17:41:47.860Z,101636.97
2022-10-16T17:44:20.946Z,101638.19
2022-10-16T17:46:50.299Z,101645.50
2022-10-16T17:49:19.649Z,101656.94
2022-10-16T17:51:52.290Z,101662.00
2022-10-16T17:54:20.497Z,101658.44
2022-10-16T17:56:49.063Z,101665.72
2022-10-16T17:59:23.057Z,101664.22
2022-10-16T18:01:51.710Z,101665.00
2022-10-16T18:04:20.021Z,101675.69
2022-10-16T18:06:48.562Z,101675.22
2022-10-16T18:09:19.311Z,101685.91
2022-10-16T18:11:49.237Z,101678.97
2022-10-16T18:14:19.534Z,101684.22
2022-10-16T18:16:47.897Z,101688.16
2022-10-16T18:19:16.183Z,101694.97
2022-10-16T18:21:44.582Z,101695.16
2022-10-16T18:24:14.122Z,101697.69
2022-10-16T18:26:42.501Z,101688.91
2022-10-16T18:29:12.746Z,101686.38
2022-10-16T18:31:42.879Z,101678.41
2022-10-16T18:34:11.875Z,101679.44
2022-10-16T18:36:43.059Z,101681.69
2022-10-16T18:39:12.235Z,101648.78
2022-10-16T18:41:42.513Z,101680.47
2022-10-16T18:44:11.425Z,101685.22
2022-10-16T18:46:39.891Z,101684.56
2022-10-16T18:49:09.711Z,101655.41
2022-10-16T18:51:42.414Z,101692.72
2022-10-16T18:54:13.741Z,101700.22
2022-10-16T18:56:42.247Z,101695.84
2022-10-16T18:59:11.339Z,101704.63
2022-10-16T19:01:40.724Z,101712.75
2022-10-16T19:04:12.487Z,101705.63
2022-10-16T19:06:43.422Z,101706.03
2022-10-16T19:09:13.455Z,101669.00
2022-10-16T19:11:42.334Z,101701.81
2022-10-16T19:14:10.880Z,101713.34
2022-10-16T19:16:39.858Z,101709.13
2022-10-16T19:19:12.715Z,101717.28
2022-10-16T19:21:41.367Z,101718.78
2022-10-16T19:24:12.762Z,101684.81
2022-10-16T19:26:42.048Z,101715.41
2022-10-16T19:29:11.339Z,101724.41
2022-10-16T19:31:40.172Z,101725.59
2022-10-16T19:34:09.746Z,101730.19
2022-10-16T19:36:40.948Z,101718.34
2022-10-16T19:39:13.074Z,101740.03
2022-10-16T19:41:41.701Z,101743.09
2022-10-16T19:44:12.469Z,101737.00
2022-10-16T19:46:40.755Z,101704.75
2022-10-16T19:49:11.083Z,101737.16
2022-10-16T19:51:41.477Z,101746.19
2022-10-16T19:54:13.274Z,101756.53
2022-10-16T19:56:42.635Z,101757.75
2022-10-16T19:59:16.276Z,101751.84
2022-10-16T20:01:44.830Z,101758.94
2022-10-16T20:04:14.520Z,101757.19
2022-10-16T20:06:44.344Z,101760.53
2022-10-16T20:09:12.611Z,101769.72
2022-10-16T20:11:40.887Z,101767.19
2022-10-16T20:14:09.113Z,101771.78
2022-10-16T20:16:37.435Z,101772.97
2022-10-16T20:19:05.884Z,101763.16
2022-10-16T20:21:35.864Z,101777.56
2022-10-16T20:24:06.661Z,101760.50
2022-10-16T20:26:36.158Z,101789.28
2022-10-16T20:29:05.839Z,101784.88
2022-10-16T20:31:35.148Z,101787.75
2022-10-16T20:34:05.750Z,101792.34
2022-10-16T20:36:35.466Z,101785.59
2022-10-16T20:39:05.434Z,101793.72
2022-10-16T20:41:33.814Z,101796.63
2022-10-16T20:44:02.076Z,101799.69
2022-10-16T20:46:30.981Z,101803.44
2022-10-16T20:49:10.385Z,101806.50
2022-10-16T20:51:39.874Z,101807.72
2022-10-16T20:54:09.567Z,101808.38
2022-10-16T20:56:38.684Z,101807.72
2022-10-16T20:59:07.453Z,101798.25
2022-10-16T21:01:36.887Z,101789.81
2022-10-16T21:04:08.128Z,101817.72
2022-10-16T21:06:38.728Z,101818.75
2022-10-16T21:09:07.939Z,101820.44
2022-10-16T21:11:39.126Z,101827.56
2022-10-16T21:14:09.601Z,101821.09
2022-10-16T21:16:38.310Z,101828.22
2022-10-16T21:19:07.717Z,101831.59
2022-10-16T21:21:38.028Z,101834.31
2022-10-16T21:24:10.913Z,101822.13
2022-10-16T21:26:43.825Z,101833.81
2022-10-16T21:29:13.140Z,101836.34
2022-10-16T21:31:42.558Z,101835.50
2022-10-16T21:34:11.063Z,101822.88
2022-10-16T21:36:41.687Z,101835.34
2022-10-16T21:39:12.327Z,101834.13
2022-10-16T21:41:41.666Z,101835.66
2022-10-16T21:44:11.984Z,101832.09
2022-10-16T21:46:42.214Z,101834.13
2022-10-16T21:49:13.936Z,101833.94
2022-10-16T21:51:45.728Z,101836.66
2022-10-16T21:54:16.329Z,101814.06
2022-10-16T21:56:44.599Z,101847.69
2022-10-16T21:59:15.236Z,101843.13
2022-10-16T22:01:44.362Z,101847.53
2022-10-16T22:04:13.612Z,101849.22
2022-10-16T22:06:42.003Z,101852.28
2022-10-16T22:09:12.859Z,101850.22
2022-10-16T22:11:42.602Z,101856.50
2022-10-16T22:14:14.596Z,101851.94
2022-10-16T22:16:43.425Z,101850.22
2022-10-16T22:19:13.336Z,101853.97
2022-10-16T22:21:43.241Z,101855.66
2022-10-16T22:24:11.515Z,101857.72
2022-10-16T22:26:40.384Z,101852.81
2022-10-16T22:29:09.193Z,101855.03
2022-10-16T22:31:38.916Z,101849.25
2022-10-16T22:34:07.374Z,101852.81
2022-10-16T22:36:36.007Z,101862.66
2022-10-16T22:39:04.974Z,101854.69
2022-10-16T22:41:33.493Z,101860.44
2022-10-16T22:44:02.101Z,101861.44
2022-10-16T22:46:31.854Z,101828.88
2022-10-16T22:49:01.587Z,101857.03
2022-10-16T22:51:29.986Z,101861.44
2022-10-16T22:53:59.591Z,101863.13
2022-10-16T22:56:28.019Z,101861.44
2022-10-16T22:58:56.593Z,101845.59
2022-10-16T23:01:28.171Z,101858.41
2022-10-16T23:03:56.755Z,101859.25
2022-10-16T23:06:26.625Z,101854.00
2022-10-16T23:08:56.178Z,101859.81
2022-10-16T23:11:24.742Z,101865.25
2022-10-16T23:13:53.379Z,101864.88
2022-10-16T23:16:23.841Z,101852.72
2022-10-16T23:18:52.799Z,101853.38
2022-10-16T23:21:23.517Z,101839.22
2022-10-16T23:23:54.951Z,101853.72
2022-10-16T23:26:25.770Z,101851.19
2022-10-16T23:28:54.620Z,101856.13
2022-10-16T23:31:22.941Z,101853.78
2022-10-16T23:33:51.288Z,101858.88
2022-10-16T23:36:20.994Z,101855.84
2022-10-16T23:38:49.888Z,101857.06
2022-10-16T23:41:20.466Z,101864.16
2022-10-16T23:43:49.218Z,101857.72
2022-10-16T23:46:18.446Z,101862.31
2022-10-16T23:48:47.010Z,101829.31
2022-10-16T23:51:15.252Z,101855.19
2022-10-16T23:53:43.526Z,101864.00
2022-10-16T23:56:11.984Z,101862.47
2022-10-16T23:58:42.291Z,101863.66
